sensor_id;sensor_type;location;lat;lon;timestamp;temperature;humidity
40996;DHT22;26723;57.478;12.066;2023-01-26T00:00:35;5.80;99.90
40996;DHT22;26723;57.478;12.066;2023-01-26T00:03:43;5.80;99.90
40996;DHT22;26723;57.478;12.066;2023-01-26T00:06:53;5.80;99.90
40996;DHT22;26723;57.478;12.066;2023-01-26T00:10:02;5.80;99.90
40996;DHT22;26723;57.478;12.066;2023-01-26T00:13:10;5.80;99.90
40996;DHT22;26723;57.478;12.066;2023-01-26T00:16:19;5.80;99.90
40996;DHT22;26723;57.478;12.066;2023-01-26T00:19:28;5.90;99.90
40996;DHT22;26723;57.478;12.066;2023-01-26T00:22:38;5.90;99.90
40996;DHT22;26723;57.478;12.066;2023-01-26T00:25:46;5.90;99.90
40996;DHT22;26723;57.478;12.066;2023-01-26T00:28:54;5.90;99.90
40996;DHT22;26723;57.478;12.066;2023-01-26T00:32:03;5.90;99.90
40996;DHT22;26723;57.478;12.066;2023-01-26T00:35:12;5.90;99.90
40996;DHT22;26723;57.478;12.066;2023-01-26T00:38:22;5.90;99.90
40996;DHT22;26723;57.478;12.066;2023-01-26T00:41:31;5.90;99.90
40996;DHT22;26723;57.478;12.066;2023-01-26T00:44:56;5.90;99.90
40996;DHT22;26723;57.478;12.066;2023-01-26T00:48:05;6.00;99.90
40996;DHT22;26723;57.478;12.066;2023-01-26T00:51:14;5.90;99.90
40996;DHT22;26723;57.478;12.066;2023-01-26T00:54:23;5.90;99.90
40996;DHT22;26723;57.478;12.066;2023-01-26T00:57:32;6.00;99.90
40996;DHT22;26723;57.478;12.066;2023-01-26T01:00:42;6.00;99.90
40996;DHT22;26723;57.478;12.066;2023-01-26T01:03:51;6.00;99.90
40996;DHT22;26723;57.478;12.066;2023-01-26T01:06:59;5.90;99.90
40996;DHT22;26723;57.478;12.066;2023-01-26T01:10:10;5.90;99.90
40996;DHT22;26723;57.478;12.066;2023-01-26T01:13:19;5.90;99.90
40996;DHT22;26723;57.478;12.066;2023-01-26T01:16:28;6.00;99.90
40996;DHT22;26723;57.478;12.066;2023-01-26T01:19:36;5.90;99.90
40996;DHT22;26723;57.478;12.066;2023-01-26T01:22:45;5.90;99.90
40996;DHT22;26723;57.478;12.066;2023-01-26T01:25:59;5.90;99.90
40996;DHT22;26723;57.478;12.066;2023-01-26T01:29:12;5.90;99.90
40996;DHT22;26723;57.478;12.066;2023-01-26T01:32:21;5.90;99.90
40996;DHT22;26723;57.478;12.066;2023-01-26T01:35:29;5.90;99.90
40996;DHT22;26723;57.478;12.066;2023-01-26T01:38:37;5.90;99.90
40996;DHT22;26723;57.478;12.066;2023-01-26T01:41:47;5.90;99.90
40996;DHT22;26723;57.478;12.066;2023-01-26T01:45:29;5.90;99.90
40996;DHT22;26723;57.478;12.066;2023-01-26T01:48:49;5.90;99.90
40996;DHT22;26723;57.478;12.066;2023-01-26T01:52:03;5.90;99.90
40996;DHT22;26723;57.478;12.066;2023-01-26T01:55:14;5.90;99.90
40996;DHT22;26723;57.478;12.066;2023-01-26T01:58:25;5.90;99.90
40996;DHT22;26723;57.478;12.066;2023-01-26T02:01:34;5.90;99.90
40996;DHT22;26723;57.478;12.066;2023-01-26T02:04:43;5.90;99.90
40996;DHT22;26723;57.478;12.066;2023-01-26T02:07:52;5.90;99.90
40996;DHT22;26723;57.478;12.066;2023-01-26T02:11:04;5.90;99.90
40996;DHT22;26723;57.478;12.066;2023-01-26T02:14:16;5.90;99.90
40996;DHT22;26723;57.478;12.066;2023-01-26T02:17:25;5.80;99.90
40996;DHT22;26723;57.478;12.066;2023-01-26T02:20:38;5.80;99.90
40996;DHT22;26723;57.478;12.066;2023-01-26T02:27:22;5.80;99.90
40996;DHT22;26723;57.478;12.066;2023-01-26T02:30:30;5.80;99.90
40996;DHT22;26723;57.478;12.066;2023-01-26T02:33:40;5.80;99.90
40996;DHT22;26723;57.478;12.066;2023-01-26T02:36:56;5.80;99.90
40996;DHT22;26723;57.478;12.066;2023-01-26T02:40:10;5.80;99.90
40996;DHT22;26723;57.478;12.066;2023-01-26T02:43:24;5.80;99.90
40996;DHT22;26723;57.478;12.066;2023-01-26T02:46:33;5.70;99.90
40996;DHT22;26723;57.478;12.066;2023-01-26T02:49:43;5.70;99.90
40996;DHT22;26723;57.478;12.066;2023-01-26T02:52:58;5.70;99.90
40996;DHT22;26723;57.478;12.066;2023-01-26T02:56:08;5.70;99.90
40996;DHT22;26723;57.478;12.066;2023-01-26T02:59:17;5.70;99.90
40996;DHT22;26723;57.478;12.066;2023-01-26T03:02:26;5.60;99.90
40996;DHT22;26723;57.478;12.066;2023-01-26T03:05:36;5.60;99.90
40996;DHT22;26723;57.478;12.066;2023-01-26T03:08:44;5.50;99.90
40996;DHT22;26723;57.478;12.066;2023-01-26T03:11:53;5.40;99.90
40996;DHT22;26723;57.478;12.066;2023-01-26T03:15:04;5.40;99.90
40996;DHT22;26723;57.478;12.066;2023-01-26T03:18:31;5.40;99.90
40996;DHT22;26723;57.478;12.066;2023-01-26T03:22:00;5.40;99.90
40996;DHT22;26723;57.478;12.066;2023-01-26T03:25:26;5.30;99.90
40996;DHT22;26723;57.478;12.066;2023-01-26T03:28:52;5.20;99.90
40996;DHT22;26723;57.478;12.066;2023-01-26T03:32:02;5.20;99.90
40996;DHT22;26723;57.478;12.066;2023-01-26T03:35:11;5.10;99.90
40996;DHT22;26723;57.478;12.066;2023-01-26T03:38:22;5.10;99.90
40996;DHT22;26723;57.478;12.066;2023-01-26T03:41:33;5.00;99.90
40996;DHT22;26723;57.478;12.066;2023-01-26T03:44:59;5.00;99.90
40996;DHT22;26723;57.478;12.066;2023-01-26T03:48:28;4.90;99.90
40996;DHT22;26723;57.478;12.066;2023-01-26T03:51:54;4.80;99.90
40996;DHT22;26723;57.478;12.066;2023-01-26T03:55:20;4.80;99.90
40996;DHT22;26723;57.478;12.066;2023-01-26T03:58:49;4.80;99.90
40996;DHT22;26723;57.478;12.066;2023-01-26T04:01:59;4.70;99.90
40996;DHT22;26723;57.478;12.066;2023-01-26T04:05:26;4.70;99.90
40996;DHT22;26723;57.478;12.066;2023-01-26T04:08:52;4.70;99.90
40996;DHT22;26723;57.478;12.066;2023-01-26T04:12:00;4.70;99.90
40996;DHT22;26723;57.478;12.066;2023-01-26T04:15:09;4.70;99.90
40996;DHT22;26723;57.478;12.066;2023-01-26T04:18:35;4.70;99.90
40996;DHT22;26723;57.478;12.066;2023-01-26T04:22:02;4.70;99.90
40996;DHT22;26723;57.478;12.066;2023-01-26T04:25:14;4.60;99.90
40996;DHT22;26723;57.478;12.066;2023-01-26T04:28:23;4.50;99.90
40996;DHT22;26723;57.478;12.066;2023-01-26T04:31:31;4.50;99.90
40996;DHT22;26723;57.478;12.066;2023-01-26T04:34:40;4.50;99.90
40996;DHT22;26723;57.478;12.066;2023-01-26T04:37:59;4.20;99.90
40996;DHT22;26723;57.478;12.066;2023-01-26T04:41:07;4.10;99.90
40996;DHT22;26723;57.478;12.066;2023-01-26T04:44:22;4.10;99.90
40996;DHT22;26723;57.478;12.066;2023-01-26T04:47:31;4.00;99.90
40996;DHT22;26723;57.478;12.066;2023-01-26T04:50:39;4.00;99.90
40996;DHT22;26723;57.478;12.066;2023-01-26T04:53:50;3.80;99.90
40996;DHT22;26723;57.478;12.066;2023-01-26T04:57:00;3.70;99.90
40996;DHT22;26723;57.478;12.066;2023-01-26T05:00:09;3.70;99.90
40996;DHT22;26723;57.478;12.066;2023-01-26T05:03:20;3.80;99.90
40996;DHT22;26723;57.478;12.066;2023-01-26T05:06:29;3.90;99.90
40996;DHT22;26723;57.478;12.066;2023-01-26T05:09:40;3.90;99.90
40996;DHT22;26723;57.478;12.066;2023-01-26T05:13:01;3.90;99.90
40996;DHT22;26723;57.478;12.066;2023-01-26T05:16:13;3.90;99.90
40996;DHT22;26723;57.478;12.066;2023-01-26T05:19:45;3.80;99.90
40996;DHT22;26723;57.478;12.066;2023-01-26T05:22:59;3.70;99.90
40996;DHT22;26723;57.478;12.066;2023-01-26T05:26:09;3.50;99.90
40996;DHT22;26723;57.478;12.066;2023-01-26T05:29:37;3.30;99.90
40996;DHT22;26723;57.478;12.066;2023-01-26T05:32:46;3.40;99.90
40996;DHT22;26723;57.478;12.066;2023-01-26T05:35:54;3.40;99.90
40996;DHT22;26723;57.478;12.066;2023-01-26T05:39:04;3.20;99.90
40996;DHT22;26723;57.478;12.066;2023-01-26T05:42:15;3.10;99.90
40996;DHT22;26723;57.478;12.066;2023-01-26T05:45:50;3.00;99.90
40996;DHT22;26723;57.478;12.066;2023-01-26T05:49:00;2.90;99.90
40996;DHT22;26723;57.478;12.066;2023-01-26T05:52:10;2.80;99.90
40996;DHT22;26723;57.478;12.066;2023-01-26T05:55:20;2.90;99.90
40996;DHT22;26723;57.478;12.066;2023-01-26T05:58:30;2.80;99.90
40996;DHT22;26723;57.478;12.066;2023-01-26T06:01:38;2.80;99.90
40996;DHT22;26723;57.478;12.066;2023-01-26T06:04:48;2.90;99.90
40996;DHT22;26723;57.478;12.066;2023-01-26T06:07:58;2.80;99.90
40996;DHT22;26723;57.478;12.066;2023-01-26T06:11:17;2.70;99.90
40996;DHT22;26723;57.478;12.066;2023-01-26T06:14:48;2.70;99.90
40996;DHT22;26723;57.478;12.066;2023-01-26T06:17:59;2.60;99.90
40996;DHT22;26723;57.478;12.066;2023-01-26T06:21:08;2.50;99.90
40996;DHT22;26723;57.478;12.066;2023-01-26T06:24:17;2.40;99.90
40996;DHT22;26723;57.478;12.066;2023-01-26T06:27:25;2.40;99.90
40996;DHT22;26723;57.478;12.066;2023-01-26T06:30:35;2.30;99.90
40996;DHT22;26723;57.478;12.066;2023-01-26T06:33:48;2.30;99.90
40996;DHT22;26723;57.478;12.066;2023-01-26T06:36:57;2.30;99.90
40996;DHT22;26723;57.478;12.066;2023-01-26T06:40:10;2.20;99.90
40996;DHT22;26723;57.478;12.066;2023-01-26T06:43:19;2.20;99.90
40996;DHT22;26723;57.478;12.066;2023-01-26T06:46:29;2.20;99.90
40996;DHT22;26723;57.478;12.066;2023-01-26T06:49:38;2.20;99.90
40996;DHT22;26723;57.478;12.066;2023-01-26T06:52:51;2.00;99.90
40996;DHT22;26723;57.478;12.066;2023-01-26T06:56:29;1.90;99.90
40996;DHT22;26723;57.478;12.066;2023-01-26T06:59:56;1.80;99.90
40996;DHT22;26723;57.478;12.066;2023-01-26T07:03:26;1.80;99.90
40996;DHT22;26723;57.478;12.066;2023-01-26T07:06:34;1.70;99.90
40996;DHT22;26723;57.478;12.066;2023-01-26T07:09:43;1.80;99.90
40996;DHT22;26723;57.478;12.066;2023-01-26T07:12:51;1.80;99.90
40996;DHT22;26723;57.478;12.066;2023-01-26T07:16:00;1.60;99.90
40996;DHT22;26723;57.478;12.066;2023-01-26T07:19:10;1.50;99.90
40996;DHT22;26723;57.478;12.066;2023-01-26T07:22:19;1.50;99.90
40996;DHT22;26723;57.478;12.066;2023-01-26T07:25:27;1.50;99.90
40996;DHT22;26723;57.478;12.066;2023-01-26T07:28:35;1.60;99.90
40996;DHT22;26723;57.478;12.066;2023-01-26T07:31:46;1.60;99.90
40996;DHT22;26723;57.478;12.066;2023-01-26T07:34:56;1.60;99.90
40996;DHT22;26723;57.478;12.066;2023-01-26T07:38:04;1.60;99.90
40996;DHT22;26723;57.478;12.066;2023-01-26T07:41:13;1.60;99.90
40996;DHT22;26723;57.478;12.066;2023-01-26T07:44:21;1.60;99.90
40996;DHT22;26723;57.478;12.066;2023-01-26T07:47:30;1.70;99.90
40996;DHT22;26723;57.478;12.066;2023-01-26T07:50:40;1.80;99.90
40996;DHT22;26723;57.478;12.066;2023-01-26T07:53:48;1.90;99.90
40996;DHT22;26723;57.478;12.066;2023-01-26T07:56:57;1.90;99.90
40996;DHT22;26723;57.478;12.066;2023-01-26T08:00:07;2.00;99.90
40996;DHT22;26723;57.478;12.066;2023-01-26T08:03:19;2.10;99.90
40996;DHT22;26723;57.478;12.066;2023-01-26T08:06:32;2.30;99.90
40996;DHT22;26723;57.478;12.066;2023-01-26T08:09:40;2.40;99.90
40996;DHT22;26723;57.478;12.066;2023-01-26T08:12:49;2.50;99.90
40996;DHT22;26723;57.478;12.066;2023-01-26T08:16:01;2.60;99.90
40996;DHT22;26723;57.478;12.066;2023-01-26T08:19:10;2.60;99.90
40996;DHT22;26723;57.478;12.066;2023-01-26T08:22:20;2.70;99.90
40996;DHT22;26723;57.478;12.066;2023-01-26T08:25:28;2.80;99.90
40996;DHT22;26723;57.478;12.066;2023-01-26T08:28:39;2.80;99.90
40996;DHT22;26723;57.478;12.066;2023-01-26T08:31:48;2.80;99.90
40996;DHT22;26723;57.478;12.066;2023-01-26T08:34:56;2.80;99.90
40996;DHT22;26723;57.478;12.066;2023-01-26T08:38:06;2.90;99.90
40996;DHT22;26723;57.478;12.066;2023-01-26T08:41:14;2.90;99.90
40996;DHT22;26723;57.478;12.066;2023-01-26T08:44:23;3.00;99.90
40996;DHT22;26723;57.478;12.066;2023-01-26T08:47:31;3.10;99.90
40996;DHT22;26723;57.478;12.066;2023-01-26T08:50:40;3.20;99.90
40996;DHT22;26723;57.478;12.066;2023-01-26T08:53:50;3.30;99.90
40996;DHT22;26723;57.478;12.066;2023-01-26T08:57:00;3.30;99.90
40996;DHT22;26723;57.478;12.066;2023-01-26T09:00:10;3.50;99.90
40996;DHT22;26723;57.478;12.066;2023-01-26T09:03:19;3.50;99.90
40996;DHT22;26723;57.478;12.066;2023-01-26T09:06:28;3.60;99.90
40996;DHT22;26723;57.478;12.066;2023-01-26T09:09:40;3.60;99.90
40996;DHT22;26723;57.478;12.066;2023-01-26T09:12:48;3.70;99.90
40996;DHT22;26723;57.478;12.066;2023-01-26T09:15:57;3.80;99.90
40996;DHT22;26723;57.478;12.066;2023-01-26T09:19:05;3.80;99.90
40996;DHT22;26723;57.478;12.066;2023-01-26T09:22:14;3.90;99.90
40996;DHT22;26723;57.478;12.066;2023-01-26T09:25:24;4.00;99.90
40996;DHT22;26723;57.478;12.066;2023-01-26T09:28:32;4.00;99.90
40996;DHT22;26723;57.478;12.066;2023-01-26T09:31:41;4.10;99.90
40996;DHT22;26723;57.478;12.066;2023-01-26T09:34:50;4.20;99.90
40996;DHT22;26723;57.478;12.066;2023-01-26T09:37:59;4.20;99.90
40996;DHT22;26723;57.478;12.066;2023-01-26T09:41:21;4.30;99.90
40996;DHT22;26723;57.478;12.066;2023-01-26T09:44:39;4.40;99.90
40996;DHT22;26723;57.478;12.066;2023-01-26T09:51:27;4.60;99.90
40996;DHT22;26723;57.478;12.066;2023-01-26T09:54:39;4.60;99.90
40996;DHT22;26723;57.478;12.066;2023-01-26T09:57:52;4.70;99.90
40996;DHT22;26723;57.478;12.066;2023-01-26T10:01:02;4.90;99.90
40996;DHT22;26723;57.478;12.066;2023-01-26T10:04:21;5.00;99.90
40996;DHT22;26723;57.478;12.066;2023-01-26T10:07:35;5.00;99.90
40996;DHT22;26723;57.478;12.066;2023-01-26T10:10:47;5.00;99.90
40996;DHT22;26723;57.478;12.066;2023-01-26T10:14:00;5.10;99.90
40996;DHT22;26723;57.478;12.066;2023-01-26T10:17:15;5.10;99.90
40996;DHT22;26723;57.478;12.066;2023-01-26T10:20:28;5.10;99.90
40996;DHT22;26723;57.478;12.066;2023-01-26T10:23:42;5.00;99.90
40996;DHT22;26723;57.478;12.066;2023-01-26T10:26:56;5.10;99.90
40996;DHT22;26723;57.478;12.066;2023-01-26T10:30:11;5.20;99.90
40996;DHT22;26723;57.478;12.066;2023-01-26T10:33:25;5.20;99.90
40996;DHT22;26723;57.478;12.066;2023-01-26T10:36:34;5.30;99.90
40996;DHT22;26723;57.478;12.066;2023-01-26T10:39:56;5.30;99.90
40996;DHT22;26723;57.478;12.066;2023-01-26T10:43:16;5.30;99.90
40996;DHT22;26723;57.478;12.066;2023-01-26T10:46:30;5.30;99.90
40996;DHT22;26723;57.478;12.066;2023-01-26T10:49:38;5.30;99.90
40996;DHT22;26723;57.478;12.066;2023-01-26T10:52:57;5.30;99.90
40996;DHT22;26723;57.478;12.066;2023-01-26T10:56:12;5.30;99.90
40996;DHT22;26723;57.478;12.066;2023-01-26T10:59:25;5.30;99.90
40996;DHT22;26723;57.478;12.066;2023-01-26T11:02:36;5.30;99.90
40996;DHT22;26723;57.478;12.066;2023-01-26T11:05:44;5.30;99.90
40996;DHT22;26723;57.478;12.066;2023-01-26T11:09:08;5.30;99.90
40996;DHT22;26723;57.478;12.066;2023-01-26T11:12:17;5.20;99.90
40996;DHT22;26723;57.478;12.066;2023-01-26T11:15:27;5.30;99.90
40996;DHT22;26723;57.478;12.066;2023-01-26T11:18:41;5.50;99.90
40996;DHT22;26723;57.478;12.066;2023-01-26T11:21:57;5.60;99.90
40996;DHT22;26723;57.478;12.066;2023-01-26T11:25:14;5.60;99.90
40996;DHT22;26723;57.478;12.066;2023-01-26T11:28:35;5.60;99.90
40996;DHT22;26723;57.478;12.066;2023-01-26T11:31:54;5.70;99.90
40996;DHT22;26723;57.478;12.066;2023-01-26T11:35:15;5.70;99.90
40996;DHT22;26723;57.478;12.066;2023-01-26T11:38:36;5.80;99.90
40996;DHT22;26723;57.478;12.066;2023-01-26T11:41:57;5.70;99.90
40996;DHT22;26723;57.478;12.066;2023-01-26T11:45:19;5.60;99.90
40996;DHT22;26723;57.478;12.066;2023-01-26T11:48:38;5.50;99.90
40996;DHT22;26723;57.478;12.066;2023-01-26T11:52:02;5.50;99.90
40996;DHT22;26723;57.478;12.066;2023-01-26T11:55:22;5.60;99.90
40996;DHT22;26723;57.478;12.066;2023-01-26T11:58:36;5.50;99.90
40996;DHT22;26723;57.478;12.066;2023-01-26T12:01:50;5.50;99.90
40996;DHT22;26723;57.478;12.066;2023-01-26T12:05:09;5.50;99.90
40996;DHT22;26723;57.478;12.066;2023-01-26T12:08:25;5.50;99.90
40996;DHT22;26723;57.478;12.066;2023-01-26T12:11:39;5.50;99.90
40996;DHT22;26723;57.478;12.066;2023-01-26T12:14:53;5.50;99.90
40996;DHT22;26723;57.478;12.066;2023-01-26T12:18:10;5.50;99.90
40996;DHT22;26723;57.478;12.066;2023-01-26T12:21:21;5.70;99.90
40996;DHT22;26723;57.478;12.066;2023-01-26T12:24:37;5.90;99.90
40996;DHT22;26723;57.478;12.066;2023-01-26T12:28:13;5.80;99.90
40996;DHT22;26723;57.478;12.066;2023-01-26T12:31:30;5.80;99.90
40996;DHT22;26723;57.478;12.066;2023-01-26T12:34:41;5.90;99.90
40996;DHT22;26723;57.478;12.066;2023-01-26T12:37:55;5.80;99.90
40996;DHT22;26723;57.478;12.066;2023-01-26T12:41:31;5.80;99.90
40996;DHT22;26723;57.478;12.066;2023-01-26T12:44:45;5.70;99.90
40996;DHT22;26723;57.478;12.066;2023-01-26T12:47:57;5.60;99.90
40996;DHT22;26723;57.478;12.066;2023-01-26T12:51:11;5.60;99.90
40996;DHT22;26723;57.478;12.066;2023-01-26T12:54:30;5.70;99.90
40996;DHT22;26723;57.478;12.066;2023-01-26T12:57:47;5.70;99.90
40996;DHT22;26723;57.478;12.066;2023-01-26T13:01:02;5.80;99.90
40996;DHT22;26723;57.478;12.066;2023-01-26T13:04:13;5.80;99.90
40996;DHT22;26723;57.478;12.066;2023-01-26T13:07:34;5.80;99.90
40996;DHT22;26723;57.478;12.066;2023-01-26T13:10:46;5.70;99.90
40996;DHT22;26723;57.478;12.066;2023-01-26T13:13:57;5.70;99.90
40996;DHT22;26723;57.478;12.066;2023-01-26T13:17:40;5.60;99.90
40996;DHT22;26723;57.478;12.066;2023-01-26T13:20:49;5.40;99.90
40996;DHT22;26723;57.478;12.066;2023-01-26T13:23:58;5.40;99.90
40996;DHT22;26723;57.478;12.066;2023-01-26T13:27:27;5.40;99.90
40996;DHT22;26723;57.478;12.066;2023-01-26T13:30:43;5.30;99.90
40996;DHT22;26723;57.478;12.066;2023-01-26T13:33:52;5.30;99.90
40996;DHT22;26723;57.478;12.066;2023-01-26T13:37:10;5.20;99.90
40996;DHT22;26723;57.478;12.066;2023-01-26T13:40:22;5.20;99.90
40996;DHT22;26723;57.478;12.066;2023-01-26T13:43:35;5.30;99.90
40996;DHT22;26723;57.478;12.066;2023-01-26T13:46:50;5.10;99.90
40996;DHT22;26723;57.478;12.066;2023-01-26T13:50:11;5.00;99.90
40996;DHT22;26723;57.478;12.066;2023-01-26T13:53:33;5.00;99.90
40996;DHT22;26723;57.478;12.066;2023-01-26T13:56:57;5.00;99.90
40996;DHT22;26723;57.478;12.066;2023-01-26T14:00:10;5.00;99.90
40996;DHT22;26723;57.478;12.066;2023-01-26T14:03:22;5.00;99.90
40996;DHT22;26723;57.478;12.066;2023-01-26T14:06:31;4.90;99.90
40996;DHT22;26723;57.478;12.066;2023-01-26T14:09:44;4.90;99.90
40996;DHT22;26723;57.478;12.066;2023-01-26T14:13:02;4.80;99.90
40996;DHT22;26723;57.478;12.066;2023-01-26T14:16:21;4.90;99.90
40996;DHT22;26723;57.478;12.066;2023-01-26T14:19:39;4.90;99.90
40996;DHT22;26723;57.478;12.066;2023-01-26T14:23:02;4.80;99.90
40996;DHT22;26723;57.478;12.066;2023-01-26T14:26:16;4.80;99.90
40996;DHT22;26723;57.478;12.066;2023-01-26T14:29:28;4.80;99.90
40996;DHT22;26723;57.478;12.066;2023-01-26T14:32:36;4.80;99.90
40996;DHT22;26723;57.478;12.066;2023-01-26T14:35:56;4.70;99.90
40996;DHT22;26723;57.478;12.066;2023-01-26T14:39:15;4.70;99.90
40996;DHT22;26723;57.478;12.066;2023-01-26T14:42:24;4.60;99.90
40996;DHT22;26723;57.478;12.066;2023-01-26T14:45:32;4.60;99.90
40996;DHT22;26723;57.478;12.066;2023-01-26T14:48:44;4.60;99.90
40996;DHT22;26723;57.478;12.066;2023-01-26T14:51:56;4.50;99.90
40996;DHT22;26723;57.478;12.066;2023-01-26T14:55:07;4.50;99.90
40996;DHT22;26723;57.478;12.066;2023-01-26T14:58:21;4.40;99.90
40996;DHT22;26723;57.478;12.066;2023-01-26T15:01:31;4.30;99.90
40996;DHT22;26723;57.478;12.066;2023-01-26T15:04:42;4.30;99.90
40996;DHT22;26723;57.478;12.066;2023-01-26T15:07:57;4.30;99.90
40996;DHT22;26723;57.478;12.066;2023-01-26T15:11:06;4.10;99.90
40996;DHT22;26723;57.478;12.066;2023-01-26T15:14:35;4.00;99.90
40996;DHT22;26723;57.478;12.066;2023-01-26T15:17:43;4.00;99.90
40996;DHT22;26723;57.478;12.066;2023-01-26T15:20:56;3.90;99.90
40996;DHT22;26723;57.478;12.066;2023-01-26T15:24:12;3.80;99.90
40996;DHT22;26723;57.478;12.066;2023-01-26T15:27:21;3.80;99.90
40996;DHT22;26723;57.478;12.066;2023-01-26T15:30:33;3.70;99.90
40996;DHT22;26723;57.478;12.066;2023-01-26T15:33:48;3.60;99.90
40996;DHT22;26723;57.478;12.066;2023-01-26T15:36:58;3.60;99.90
40996;DHT22;26723;57.478;12.066;2023-01-26T15:40:09;3.60;99.90
40996;DHT22;26723;57.478;12.066;2023-01-26T15:43:21;3.50;99.90
40996;DHT22;26723;57.478;12.066;2023-01-26T15:46:29;3.40;99.90
40996;DHT22;26723;57.478;12.066;2023-01-26T15:49:39;3.30;99.90
40996;DHT22;26723;57.478;12.066;2023-01-26T15:52:48;3.20;99.90
40996;DHT22;26723;57.478;12.066;2023-01-26T15:55:58;3.20;99.90
40996;DHT22;26723;57.478;12.066;2023-01-26T15:59:07;3.10;99.90
40996;DHT22;26723;57.478;12.066;2023-01-26T16:02:17;3.10;99.90
40996;DHT22;26723;57.478;12.066;2023-01-26T16:05:26;3.10;99.90
40996;DHT22;26723;57.478;12.066;2023-01-26T16:08:34;3.00;99.90
40996;DHT22;26723;57.478;12.066;2023-01-26T16:11:47;2.90;99.90
40996;DHT22;26723;57.478;12.066;2023-01-26T16:14:56;2.80;99.90
40996;DHT22;26723;57.478;12.066;2023-01-26T16:18:04;2.70;99.90
40996;DHT22;26723;57.478;12.066;2023-01-26T16:21:19;2.70;99.90
40996;DHT22;26723;57.478;12.066;2023-01-26T16:24:28;2.70;99.90
40996;DHT22;26723;57.478;12.066;2023-01-26T16:27:37;2.70;99.90
40996;DHT22;26723;57.478;12.066;2023-01-26T16:30:48;2.70;99.90
40996;DHT22;26723;57.478;12.066;2023-01-26T16:33:58;2.70;99.90
40996;DHT22;26723;57.478;12.066;2023-01-26T16:37:07;2.60;99.90
40996;DHT22;26723;57.478;12.066;2023-01-26T16:40:17;2.60;99.90
40996;DHT22;26723;57.478;12.066;2023-01-26T16:43:27;2.50;99.90
40996;DHT22;26723;57.478;12.066;2023-01-26T16:46:37;2.50;99.90
40996;DHT22;26723;57.478;12.066;2023-01-26T16:49:46;2.50;99.90
40996;DHT22;26723;57.478;12.066;2023-01-26T16:52:54;2.50;99.90
40996;DHT22;26723;57.478;12.066;2023-01-26T16:56:04;2.40;99.90
40996;DHT22;26723;57.478;12.066;2023-01-26T16:59:15;2.40;99.90
40996;DHT22;26723;57.478;12.066;2023-01-26T17:02:26;2.40;99.90
40996;DHT22;26723;57.478;12.066;2023-01-26T17:05:35;2.30;99.90
40996;DHT22;26723;57.478;12.066;2023-01-26T17:08:44;2.30;99.90
40996;DHT22;26723;57.478;12.066;2023-01-26T17:11:53;2.30;99.90
40996;DHT22;26723;57.478;12.066;2023-01-26T17:15:05;2.20;99.90
40996;DHT22;26723;57.478;12.066;2023-01-26T17:18:14;2.20;99.90
40996;DHT22;26723;57.478;12.066;2023-01-26T17:21:24;2.10;99.90
40996;DHT22;26723;57.478;12.066;2023-01-26T17:24:33;2.10;99.90
40996;DHT22;26723;57.478;12.066;2023-01-26T17:27:42;2.00;99.90
40996;DHT22;26723;57.478;12.066;2023-01-26T17:30:51;2.10;99.90
40996;DHT22;26723;57.478;12.066;2023-01-26T17:34:00;2.10;99.90
40996;DHT22;26723;57.478;12.066;2023-01-26T17:37:08;2.00;99.90
40996;DHT22;26723;57.478;12.066;2023-01-26T17:40:17;2.00;99.90
40996;DHT22;26723;57.478;12.066;2023-01-26T17:43:26;1.90;99.90
40996;DHT22;26723;57.478;12.066;2023-01-26T17:46:36;1.80;99.90
40996;DHT22;26723;57.478;12.066;2023-01-26T17:49:46;1.80;99.90
40996;DHT22;26723;57.478;12.066;2023-01-26T17:52:55;1.80;99.90
40996;DHT22;26723;57.478;12.066;2023-01-26T17:56:03;1.80;99.90
40996;DHT22;26723;57.478;12.066;2023-01-26T17:59:14;1.80;99.90
40996;DHT22;26723;57.478;12.066;2023-01-26T18:02:24;1.70;99.90
40996;DHT22;26723;57.478;12.066;2023-01-26T18:05:33;1.70;99.90
40996;DHT22;26723;57.478;12.066;2023-01-26T18:08:41;1.70;99.90
40996;DHT22;26723;57.478;12.066;2023-01-26T18:11:50;1.70;99.90
40996;DHT22;26723;57.478;12.066;2023-01-26T18:14:58;1.60;99.90
40996;DHT22;26723;57.478;12.066;2023-01-26T18:18:08;1.60;99.90
40996;DHT22;26723;57.478;12.066;2023-01-26T18:21:19;1.60;99.90
40996;DHT22;26723;57.478;12.066;2023-01-26T18:24:29;1.60;99.90
40996;DHT22;26723;57.478;12.066;2023-01-26T18:27:37;1.60;99.90
40996;DHT22;26723;57.478;12.066;2023-01-26T18:30:46;1.60;99.90
40996;DHT22;26723;57.478;12.066;2023-01-26T18:33:57;1.50;99.90
40996;DHT22;26723;57.478;12.066;2023-01-26T18:37:06;1.50;99.90
40996;DHT22;26723;57.478;12.066;2023-01-26T18:40:15;1.40;99.90
40996;DHT22;26723;57.478;12.066;2023-01-26T18:43:24;1.40;99.90
40996;DHT22;26723;57.478;12.066;2023-01-26T18:46:38;1.40;99.90
40996;DHT22;26723;57.478;12.066;2023-01-26T18:49:48;1.30;99.90
40996;DHT22;26723;57.478;12.066;2023-01-26T18:52:56;1.30;99.90
40996;DHT22;26723;57.478;12.066;2023-01-26T18:56:06;1.30;99.90
40996;DHT22;26723;57.478;12.066;2023-01-26T18:59:16;1.20;99.90
40996;DHT22;26723;57.478;12.066;2023-01-26T19:02:24;1.20;99.90
40996;DHT22;26723;57.478;12.066;2023-01-26T19:05:41;1.20;99.90
40996;DHT22;26723;57.478;12.066;2023-01-26T19:08:53;1.10;99.90
40996;DHT22;26723;57.478;12.066;2023-01-26T19:12:05;1.20;99.90
40996;DHT22;26723;57.478;12.066;2023-01-26T19:15:14;1.10;99.90
40996;DHT22;26723;57.478;12.066;2023-01-26T19:18:22;1.10;99.90
40996;DHT22;26723;57.478;12.066;2023-01-26T19:21:32;1.10;99.90
40996;DHT22;26723;57.478;12.066;2023-01-26T19:24:41;1.00;99.90
40996;DHT22;26723;57.478;12.066;2023-01-26T19:27:50;1.00;99.90
40996;DHT22;26723;57.478;12.066;2023-01-26T19:31:02;1.00;99.90
40996;DHT22;26723;57.478;12.066;2023-01-26T19:34:13;1.00;99.90
40996;DHT22;26723;57.478;12.066;2023-01-26T19:37:24;1.00;99.90
40996;DHT22;26723;57.478;12.066;2023-01-26T19:40:32;0.90;99.90
40996;DHT22;26723;57.478;12.066;2023-01-26T19:43:41;0.90;99.90
40996;DHT22;26723;57.478;12.066;2023-01-26T19:46:50;0.90;99.90
40996;DHT22;26723;57.478;12.066;2023-01-26T19:50:00;0.90;99.90
40996;DHT22;26723;57.478;12.066;2023-01-26T19:53:12;0.80;99.90
40996;DHT22;26723;57.478;12.066;2023-01-26T19:56:22;0.80;99.90
40996;DHT22;26723;57.478;12.066;2023-01-26T19:59:31;0.80;99.90
40996;DHT22;26723;57.478;12.066;2023-01-26T20:02:39;0.70;99.90
40996;DHT22;26723;57.478;12.066;2023-01-26T20:05:48;0.70;99.90
40996;DHT22;26723;57.478;12.066;2023-01-26T20:08:59;0.60;99.90
40996;DHT22;26723;57.478;12.066;2023-01-26T20:12:09;0.60;99.90
40996;DHT22;26723;57.478;12.066;2023-01-26T20:15:18;0.70;99.90
40996;DHT22;26723;57.478;12.066;2023-01-26T20:18:26;0.70;99.90
40996;DHT22;26723;57.478;12.066;2023-01-26T20:21:35;0.70;99.90